sensor_id;sensor_type;location;lat;lon;timestamp;temperature;humidity
40538;DHT22;27925;41.874;12.526;2022-07-26T00:01:24;29.60;76.40
40538;DHT22;27925;41.874;12.526;2022-07-26T00:03:50;29.60;76.80
40538;DHT22;27925;41.874;12.526;2022-07-26T00:06:17;29.60;76.90
40538;DHT22;27925;41.874;12.526;2022-07-26T00:08:43;29.50;76.50
40538;DHT22;27925;41.874;12.526;2022-07-26T00:11:08;29.50;76.70
40538;DHT22;27925;41.874;12.526;2022-07-26T00:13:35;29.40;76.60
40538;DHT22;27925;41.874;12.526;2022-07-26T00:16:01;29.40;76.20
40538;DHT22;27925;41.874;12.526;2022-07-26T00:18:27;29.40;76.50
40538;DHT22;27925;41.874;12.526;2022-07-26T00:20:53;29.40;76.50
40538;DHT22;27925;41.874;12.526;2022-07-26T00:23:19;29.40;76.40
40538;DHT22;27925;41.874;12.526;2022-07-26T00:25:45;29.30;76.10
40538;DHT22;27925;41.874;12.526;2022-07-26T00:28:11;29.40;76.10
40538;DHT22;27925;41.874;12.526;2022-07-26T00:30:37;29.30;76.00
40538;DHT22;27925;41.874;12.526;2022-07-26T00:33:05;29.30;75.40
40538;DHT22;27925;41.874;12.526;2022-07-26T00:35:30;29.30;74.80
40538;DHT22;27925;41.874;12.526;2022-07-26T00:37:57;29.30;75.30
40538;DHT22;27925;41.874;12.526;2022-07-26T00:40:23;29.20;76.00
40538;DHT22;27925;41.874;12.526;2022-07-26T00:42:49;29.20;75.00
40538;DHT22;27925;41.874;12.526;2022-07-26T00:45:16;29.20;75.10
40538;DHT22;27925;41.874;12.526;2022-07-26T00:47:42;29.30;75.40
40538;DHT22;27925;41.874;12.526;2022-07-26T00:50:12;29.30;75.50
40538;DHT22;27925;41.874;12.526;2022-07-26T00:52:41;29.30;75.70
40538;DHT22;27925;41.874;12.526;2022-07-26T00:55:07;29.30;75.80
40538;DHT22;27925;41.874;12.526;2022-07-26T00:57:33;29.30;75.30
40538;DHT22;27925;41.874;12.526;2022-07-26T01:00:04;29.30;75.00
40538;DHT22;27925;41.874;12.526;2022-07-26T01:02:30;29.30;75.30
40538;DHT22;27925;41.874;12.526;2022-07-26T01:04:56;29.30;74.00
40538;DHT22;27925;41.874;12.526;2022-07-26T01:07:22;29.40;74.80
40538;DHT22;27925;41.874;12.526;2022-07-26T01:09:49;29.40;74.80
40538;DHT22;27925;41.874;12.526;2022-07-26T01:12:15;29.40;75.70
40538;DHT22;27925;41.874;12.526;2022-07-26T01:14:46;29.30;74.70
40538;DHT22;27925;41.874;12.526;2022-07-26T01:17:13;29.40;75.40
40538;DHT22;27925;41.874;12.526;2022-07-26T01:19:39;29.30;76.10
40538;DHT22;27925;41.874;12.526;2022-07-26T01:22:05;29.30;76.20
40538;DHT22;27925;41.874;12.526;2022-07-26T01:24:32;29.20;76.50
40538;DHT22;27925;41.874;12.526;2022-07-26T01:26:57;29.20;76.60
40538;DHT22;27925;41.874;12.526;2022-07-26T01:29:23;29.20;76.10
40538;DHT22;27925;41.874;12.526;2022-07-26T01:31:50;29.20;75.80
40538;DHT22;27925;41.874;12.526;2022-07-26T01:34:16;29.20;76.80
40538;DHT22;27925;41.874;12.526;2022-07-26T01:36:42;29.20;76.40
40538;DHT22;27925;41.874;12.526;2022-07-26T01:39:07;29.20;76.30
40538;DHT22;27925;41.874;12.526;2022-07-26T01:41:33;29.20;77.20
40538;DHT22;27925;41.874;12.526;2022-07-26T01:43:59;29.10;77.20
40538;DHT22;27925;41.874;12.526;2022-07-26T01:46:25;29.10;77.50
40538;DHT22;27925;41.874;12.526;2022-07-26T01:48:51;29.10;78.10
40538;DHT22;27925;41.874;12.526;2022-07-26T01:51:17;29.00;78.50
40538;DHT22;27925;41.874;12.526;2022-07-26T01:53:43;29.00;78.60
40538;DHT22;27925;41.874;12.526;2022-07-26T01:56:13;28.90;78.20
40538;DHT22;27925;41.874;12.526;2022-07-26T01:58:39;28.90;79.20
40538;DHT22;27925;41.874;12.526;2022-07-26T02:01:06;28.90;79.20
40538;DHT22;27925;41.874;12.526;2022-07-26T02:03:31;28.80;79.70
40538;DHT22;27925;41.874;12.526;2022-07-26T02:05:57;28.80;79.80
40538;DHT22;27925;41.874;12.526;2022-07-26T02:08:23;28.70;79.90
40538;DHT22;27925;41.874;12.526;2022-07-26T02:10:50;28.70;80.60
40538;DHT22;27925;41.874;12.526;2022-07-26T02:13:36;28.70;80.20
40538;DHT22;27925;41.874;12.526;2022-07-26T02:16:04;28.70;80.00
40538;DHT22;27925;41.874;12.526;2022-07-26T02:18:31;28.60;79.80
40538;DHT22;27925;41.874;12.526;2022-07-26T02:20:58;28.60;80.40
40538;DHT22;27925;41.874;12.526;2022-07-26T02:23:24;28.60;80.40
40538;DHT22;27925;41.874;12.526;2022-07-26T02:25:51;28.60;80.40
40538;DHT22;27925;41.874;12.526;2022-07-26T02:28:17;28.50;80.90
40538;DHT22;27925;41.874;12.526;2022-07-26T02:30:45;28.50;80.60
40538;DHT22;27925;41.874;12.526;2022-07-26T02:33:11;28.60;80.80
40538;DHT22;27925;41.874;12.526;2022-07-26T02:35:37;28.50;80.50
40538;DHT22;27925;41.874;12.526;2022-07-26T02:38:08;28.50;79.50
40538;DHT22;27925;41.874;12.526;2022-07-26T02:40:35;28.60;78.70
40538;DHT22;27925;41.874;12.526;2022-07-26T02:43:02;28.60;78.00
40538;DHT22;27925;41.874;12.526;2022-07-26T02:45:27;28.60;76.30
40538;DHT22;27925;41.874;12.526;2022-07-26T02:47:54;28.70;75.40
40538;DHT22;27925;41.874;12.526;2022-07-26T02:50:22;28.70;74.50
40538;DHT22;27925;41.874;12.526;2022-07-26T02:52:49;28.70;73.90
40538;DHT22;27925;41.874;12.526;2022-07-26T02:55:17;28.70;73.10
40538;DHT22;27925;41.874;12.526;2022-07-26T02:57:43;28.60;72.20
40538;DHT22;27925;41.874;12.526;2022-07-26T03:00:11;28.60;72.00
40538;DHT22;27925;41.874;12.526;2022-07-26T03:02:37;28.60;72.30
40538;DHT22;27925;41.874;12.526;2022-07-26T03:05:04;28.50;72.80
40538;DHT22;27925;41.874;12.526;2022-07-26T03:07:31;28.50;73.90
40538;DHT22;27925;41.874;12.526;2022-07-26T03:09:57;28.50;74.30
40538;DHT22;27925;41.874;12.526;2022-07-26T03:12:23;28.50;74.60
40538;DHT22;27925;41.874;12.526;2022-07-26T03:14:48;28.40;75.20
40538;DHT22;27925;41.874;12.526;2022-07-26T03:17:14;28.40;75.50
40538;DHT22;27925;41.874;12.526;2022-07-26T03:19:40;28.40;75.70
40538;DHT22;27925;41.874;12.526;2022-07-26T03:22:05;28.40;76.30
40538;DHT22;27925;41.874;12.526;2022-07-26T03:24:31;28.40;77.00
40538;DHT22;27925;41.874;12.526;2022-07-26T03:26:57;28.50;77.90
40538;DHT22;27925;41.874;12.526;2022-07-26T03:29:23;28.50;78.60
40538;DHT22;27925;41.874;12.526;2022-07-26T03:31:49;28.50;79.50
40538;DHT22;27925;41.874;12.526;2022-07-26T03:34:16;28.50;80.00
40538;DHT22;27925;41.874;12.526;2022-07-26T03:36:42;28.50;80.30
40538;DHT22;27925;41.874;12.526;2022-07-26T03:39:11;28.50;80.60
40538;DHT22;27925;41.874;12.526;2022-07-26T03:41:37;28.40;81.20
40538;DHT22;27925;41.874;12.526;2022-07-26T03:44:03;28.40;81.80
40538;DHT22;27925;41.874;12.526;2022-07-26T03:46:29;28.30;82.20
40538;DHT22;27925;41.874;12.526;2022-07-26T03:48:54;28.30;82.40
40538;DHT22;27925;41.874;12.526;2022-07-26T03:51:20;28.30;82.80
40538;DHT22;27925;41.874;12.526;2022-07-26T03:53:46;28.20;82.60
40538;DHT22;27925;41.874;12.526;2022-07-26T03:56:12;28.20;82.80
40538;DHT22;27925;41.874;12.526;2022-07-26T03:59:01;28.20;83.60
40538;DHT22;27925;41.874;12.526;2022-07-26T04:01:28;28.20;83.00
40538;DHT22;27925;41.874;12.526;2022-07-26T04:03:54;28.20;83.40
40538;DHT22;27925;41.874;12.526;2022-07-26T04:06:20;28.20;83.90
40538;DHT22;27925;41.874;12.526;2022-07-26T04:08:45;28.30;83.10
40538;DHT22;27925;41.874;12.526;2022-07-26T04:11:11;28.20;83.40
40538;DHT22;27925;41.874;12.526;2022-07-26T04:13:37;28.20;83.90
40538;DHT22;27925;41.874;12.526;2022-07-26T04:16:03;28.20;84.20
40538;DHT22;27925;41.874;12.526;2022-07-26T04:18:29;28.20;84.70
40538;DHT22;27925;41.874;12.526;2022-07-26T04:20:55;28.20;85.10
40538;DHT22;27925;41.874;12.526;2022-07-26T04:23:21;28.20;85.40
40538;DHT22;27925;41.874;12.526;2022-07-26T04:25:46;28.20;85.50
40538;DHT22;27925;41.874;12.526;2022-07-26T04:28:12;28.20;85.60
40538;DHT22;27925;41.874;12.526;2022-07-26T04:30:38;28.20;85.10
40538;DHT22;27925;41.874;12.526;2022-07-26T04:33:04;28.20;85.20
40538;DHT22;27925;41.874;12.526;2022-07-26T04:35:31;28.20;85.60
40538;DHT22;27925;41.874;12.526;2022-07-26T04:37:58;28.20;85.50
40538;DHT22;27925;41.874;12.526;2022-07-26T04:40:24;28.30;85.10
40538;DHT22;27925;41.874;12.526;2022-07-26T04:42:52;28.30;85.10
40538;DHT22;27925;41.874;12.526;2022-07-26T04:45:18;28.40;84.80
40538;DHT22;27925;41.874;12.526;2022-07-26T04:47:46;28.40;84.20
40538;DHT22;27925;41.874;12.526;2022-07-26T04:50:17;28.40;84.10
40538;DHT22;27925;41.874;12.526;2022-07-26T04:52:43;28.40;84.30
40538;DHT22;27925;41.874;12.526;2022-07-26T04:55:09;28.50;84.40
40538;DHT22;27925;41.874;12.526;2022-07-26T04:57:35;28.50;83.90
40538;DHT22;27925;41.874;12.526;2022-07-26T05:00:02;28.60;83.50
40538;DHT22;27925;41.874;12.526;2022-07-26T05:02:28;28.60;83.00
40538;DHT22;27925;41.874;12.526;2022-07-26T05:04:54;28.60;82.60
40538;DHT22;27925;41.874;12.526;2022-07-26T05:07:19;28.60;82.50
40538;DHT22;27925;41.874;12.526;2022-07-26T05:09:45;28.60;81.60
40538;DHT22;27925;41.874;12.526;2022-07-26T05:12:11;28.60;80.40
40538;DHT22;27925;41.874;12.526;2022-07-26T05:14:36;28.60;79.70
40538;DHT22;27925;41.874;12.526;2022-07-26T05:17:03;28.70;79.40
40538;DHT22;27925;41.874;12.526;2022-07-26T05:19:29;28.80;78.50
40538;DHT22;27925;41.874;12.526;2022-07-26T05:21:54;28.90;77.90
40538;DHT22;27925;41.874;12.526;2022-07-26T05:24:20;29.10;77.20
40538;DHT22;27925;41.874;12.526;2022-07-26T05:26:46;29.30;76.50
40538;DHT22;27925;41.874;12.526;2022-07-26T05:29:11;29.50;75.80
40538;DHT22;27925;41.874;12.526;2022-07-26T05:31:37;29.80;74.90
40538;DHT22;27925;41.874;12.526;2022-07-26T05:34:03;30.10;74.50
40538;DHT22;27925;41.874;12.526;2022-07-26T05:36:29;30.40;73.70
40538;DHT22;27925;41.874;12.526;2022-07-26T05:38:54;30.70;73.30
40538;DHT22;27925;41.874;12.526;2022-07-26T05:41:20;31.00;72.50
40538;DHT22;27925;41.874;12.526;2022-07-26T05:43:46;31.30;71.70
40538;DHT22;27925;41.874;12.526;2022-07-26T05:46:12;31.40;71.10
40538;DHT22;27925;41.874;12.526;2022-07-26T05:48:41;31.50;70.60
40538;DHT22;27925;41.874;12.526;2022-07-26T05:51:07;31.70;69.70
40538;DHT22;27925;41.874;12.526;2022-07-26T05:53:33;31.80;69.00
40538;DHT22;27925;41.874;12.526;2022-07-26T05:56:00;31.90;68.50
40538;DHT22;27925;41.874;12.526;2022-07-26T05:58:26;32.10;67.70
40538;DHT22;27925;41.874;12.526;2022-07-26T06:00:52;32.20;67.70
40538;DHT22;27925;41.874;12.526;2022-07-26T06:03:17;32.30;66.90
40538;DHT22;27925;41.874;12.526;2022-07-26T06:05:50;32.10;67.30
40538;DHT22;27925;41.874;12.526;2022-07-26T06:08:17;32.00;68.10
40538;DHT22;27925;41.874;12.526;2022-07-26T06:10:43;32.10;68.50
40538;DHT22;27925;41.874;12.526;2022-07-26T06:13:10;32.30;68.40
40538;DHT22;27925;41.874;12.526;2022-07-26T06:15:36;32.40;67.50
40538;DHT22;27925;41.874;12.526;2022-07-26T06:18:06;32.60;67.30
40538;DHT22;27925;41.874;12.526;2022-07-26T06:20:32;32.70;67.30
40538;DHT22;27925;41.874;12.526;2022-07-26T06:22:58;32.70;67.40
40538;DHT22;27925;41.874;12.526;2022-07-26T06:25:25;32.90;67.50
40538;DHT22;27925;41.874;12.526;2022-07-26T06:27:51;33.10;67.10
40538;DHT22;27925;41.874;12.526;2022-07-26T06:30:17;33.00;66.90
40538;DHT22;27925;41.874;12.526;2022-07-26T06:32:42;32.90;67.40
40538;DHT22;27925;41.874;12.526;2022-07-26T06:35:13;32.90;67.90
40538;DHT22;27925;41.874;12.526;2022-07-26T06:37:40;32.90;67.70
40538;DHT22;27925;41.874;12.526;2022-07-26T06:40:08;32.80;68.30
40538;DHT22;27925;41.874;12.526;2022-07-26T06:42:34;32.80;68.40
40538;DHT22;27925;41.874;12.526;2022-07-26T06:45:02;32.90;67.70
40538;DHT22;27925;41.874;12.526;2022-07-26T06:47:27;33.20;67.70
40538;DHT22;27925;41.874;12.526;2022-07-26T06:49:53;33.20;67.40
40538;DHT22;27925;41.874;12.526;2022-07-26T06:52:19;33.30;67.10
40538;DHT22;27925;41.874;12.526;2022-07-26T06:54:45;33.50;66.80
40538;DHT22;27925;41.874;12.526;2022-07-26T06:57:10;33.50;66.00
40538;DHT22;27925;41.874;12.526;2022-07-26T06:59:37;33.40;65.70
40538;DHT22;27925;41.874;12.526;2022-07-26T07:02:03;33.10;66.80
40538;DHT22;27925;41.874;12.526;2022-07-26T07:04:30;32.90;66.10
40538;DHT22;27925;41.874;12.526;2022-07-26T07:06:57;32.80;67.80
40538;DHT22;27925;41.874;12.526;2022-07-26T07:09:27;32.70;68.00
40538;DHT22;27925;41.874;12.526;2022-07-26T07:11:53;32.60;68.20
40538;DHT22;27925;41.874;12.526;2022-07-26T07:14:19;32.40;68.50
40538;DHT22;27925;41.874;12.526;2022-07-26T07:16:45;32.50;66.90
40538;DHT22;27925;41.874;12.526;2022-07-26T07:19:11;32.60;65.80
40538;DHT22;27925;41.874;12.526;2022-07-26T07:21:37;32.80;66.20
40538;DHT22;27925;41.874;12.526;2022-07-26T07:24:04;32.90;64.70
40538;DHT22;27925;41.874;12.526;2022-07-26T07:26:30;33.00;64.50
40538;DHT22;27925;41.874;12.526;2022-07-26T07:28:56;33.00;64.20
40538;DHT22;27925;41.874;12.526;2022-07-26T07:31:22;33.10;63.70
40538;DHT22;27925;41.874;12.526;2022-07-26T07:33:49;33.20;63.10
40538;DHT22;27925;41.874;12.526;2022-07-26T07:36:14;33.30;62.40
40538;DHT22;27925;41.874;12.526;2022-07-26T07:38:40;33.40;62.20
40538;DHT22;27925;41.874;12.526;2022-07-26T07:41:06;33.60;61.80
40538;DHT22;27925;41.874;12.526;2022-07-26T07:43:31;33.70;61.30
40538;DHT22;27925;41.874;12.526;2022-07-26T07:45:59;33.80;60.80
40538;DHT22;27925;41.874;12.526;2022-07-26T07:48:25;33.90;59.50
40538;DHT22;27925;41.874;12.526;2022-07-26T07:50:51;34.00;60.60
40538;DHT22;27925;41.874;12.526;2022-07-26T07:53:16;34.10;59.80
40538;DHT22;27925;41.874;12.526;2022-07-26T07:55:42;34.20;59.20
40538;DHT22;27925;41.874;12.526;2022-07-26T07:58:08;34.20;59.30
40538;DHT22;27925;41.874;12.526;2022-07-26T08:00:34;34.20;59.50
40538;DHT22;27925;41.874;12.526;2022-07-26T08:03:00;34.00;60.20
40538;DHT22;27925;41.874;12.526;2022-07-26T08:05:25;33.90;60.10
40538;DHT22;27925;41.874;12.526;2022-07-26T08:07:51;33.90;60.20
40538;DHT22;27925;41.874;12.526;2022-07-26T08:10:18;33.90;60.50
40538;DHT22;27925;41.874;12.526;2022-07-26T08:12:44;33.70;60.20
40538;DHT22;27925;41.874;12.526;2022-07-26T08:15:10;33.70;60.40
40538;DHT22;27925;41.874;12.526;2022-07-26T08:17:36;33.70;60.10
40538;DHT22;27925;41.874;12.526;2022-07-26T08:20:03;33.60;59.60
40538;DHT22;27925;41.874;12.526;2022-07-26T08:22:28;33.60;58.60
40538;DHT22;27925;41.874;12.526;2022-07-26T08:24:54;33.60;58.40
40538;DHT22;27925;41.874;12.526;2022-07-26T08:27:20;33.60;58.10
40538;DHT22;27925;41.874;12.526;2022-07-26T08:29:45;33.70;58.00
40538;DHT22;27925;41.874;12.526;2022-07-26T08:32:11;33.70;57.80
40538;DHT22;27925;41.874;12.526;2022-07-26T08:34:37;33.60;57.70
40538;DHT22;27925;41.874;12.526;2022-07-26T08:37:02;33.70;57.90
40538;DHT22;27925;41.874;12.526;2022-07-26T08:39:28;33.70;57.60
40538;DHT22;27925;41.874;12.526;2022-07-26T08:41:54;33.70;57.50
40538;DHT22;27925;41.874;12.526;2022-07-26T08:44:20;33.70;57.20
40538;DHT22;27925;41.874;12.526;2022-07-26T08:46:45;33.60;56.40
40538;DHT22;27925;41.874;12.526;2022-07-26T08:49:11;33.60;56.50
40538;DHT22;27925;41.874;12.526;2022-07-26T08:51:41;33.60;56.70
40538;DHT22;27925;41.874;12.526;2022-07-26T08:54:10;33.50;56.50
40538;DHT22;27925;41.874;12.526;2022-07-26T08:56:39;33.50;57.40
40538;DHT22;27925;41.874;12.526;2022-07-26T08:59:14;33.50;56.80
40538;DHT22;27925;41.874;12.526;2022-07-26T09:02:04;33.50;56.70
40538;DHT22;27925;41.874;12.526;2022-07-26T09:04:32;33.50;57.10
40538;DHT22;27925;41.874;12.526;2022-07-26T09:07:08;33.60;56.70
40538;DHT22;27925;41.874;12.526;2022-07-26T09:09:38;33.60;56.70
40538;DHT22;27925;41.874;12.526;2022-07-26T09:12:15;33.50;56.30
40538;DHT22;27925;41.874;12.526;2022-07-26T09:14:41;33.50;57.10
40538;DHT22;27925;41.874;12.526;2022-07-26T09:17:07;33.50;56.90
40538;DHT22;27925;41.874;12.526;2022-07-26T09:19:33;33.50;56.70
40538;DHT22;27925;41.874;12.526;2022-07-26T09:22:15;33.40;56.50
40538;DHT22;27925;41.874;12.526;2022-07-26T09:24:46;33.50;56.70
40538;DHT22;27925;41.874;12.526;2022-07-26T09:27:14;33.50;56.40
40538;DHT22;27925;41.874;12.526;2022-07-26T09:29:53;33.50;56.40
40538;DHT22;27925;41.874;12.526;2022-07-26T09:32:22;33.50;56.50
40538;DHT22;27925;41.874;12.526;2022-07-26T09:34:55;33.50;56.50
40538;DHT22;27925;41.874;12.526;2022-07-26T09:37:34;33.50;56.10
40538;DHT22;27925;41.874;12.526;2022-07-26T09:40:02;33.60;55.80
40538;DHT22;27925;41.874;12.526;2022-07-26T09:42:28;33.60;55.40
40538;DHT22;27925;41.874;12.526;2022-07-26T09:44:55;33.70;55.10
40538;DHT22;27925;41.874;12.526;2022-07-26T09:47:22;33.70;54.80
40538;DHT22;27925;41.874;12.526;2022-07-26T09:49:47;33.70;54.50
40538;DHT22;27925;41.874;12.526;2022-07-26T09:52:18;33.80;54.10
40538;DHT22;27925;41.874;12.526;2022-07-26T09:54:47;33.80;54.00
40538;DHT22;27925;41.874;12.526;2022-07-26T09:57:18;33.80;52.40
40538;DHT22;27925;41.874;12.526;2022-07-26T09:59:45;33.80;53.60
40538;DHT22;27925;41.874;12.526;2022-07-26T10:02:12;33.80;53.70
40538;DHT22;27925;41.874;12.526;2022-07-26T10:04:40;33.80;54.20
40538;DHT22;27925;41.874;12.526;2022-07-26T10:07:07;33.80;53.40
40538;DHT22;27925;41.874;12.526;2022-07-26T10:10:24;33.90;53.40
40538;DHT22;27925;41.874;12.526;2022-07-26T10:12:32;33.90;52.00
40538;DHT22;27925;41.874;12.526;2022-07-26T10:14:58;33.90;53.20
40538;DHT22;27925;41.874;12.526;2022-07-26T10:20:00;34.00;52.10
40538;DHT22;27925;41.874;12.526;2022-07-26T10:27:49;34.00;51.90
40538;DHT22;27925;41.874;12.526;2022-07-26T10:38:22;34.10;50.90
40538;DHT22;27925;41.874;12.526;2022-07-26T10:40:59;34.20;51.80
40538;DHT22;27925;41.874;12.526;2022-07-26T10:43:28;34.20;50.90
40538;DHT22;27925;41.874;12.526;2022-07-26T10:51:25;34.30;51.20
40538;DHT22;27925;41.874;12.526;2022-07-26T10:54:03;34.30;51.10
40538;DHT22;27925;41.874;12.526;2022-07-26T10:56:30;34.30;51.10
40538;DHT22;27925;41.874;12.526;2022-07-26T10:58:56;34.40;50.60
40538;DHT22;27925;41.874;12.526;2022-07-26T11:01:30;34.40;50.50
40538;DHT22;27925;41.874;12.526;2022-07-26T11:03:57;34.40;50.20
40538;DHT22;27925;41.874;12.526;2022-07-26T11:06:26;34.40;49.90
40538;DHT22;27925;41.874;12.526;2022-07-26T11:08:52;34.40;49.70
40538;DHT22;27925;41.874;12.526;2022-07-26T11:11:31;34.40;49.30
40538;DHT22;27925;41.874;12.526;2022-07-26T11:14:23;34.50;49.40
40538;DHT22;27925;41.874;12.526;2022-07-26T11:16:50;34.50;49.30
40538;DHT22;27925;41.874;12.526;2022-07-26T11:19:19;34.50;48.90
40538;DHT22;27925;41.874;12.526;2022-07-26T11:21:46;34.60;49.70
40538;DHT22;27925;41.874;12.526;2022-07-26T11:24:12;34.60;49.90
40538;DHT22;27925;41.874;12.526;2022-07-26T11:26:42;34.70;49.80
40538;DHT22;27925;41.874;12.526;2022-07-26T11:29:08;34.70;49.60
40538;DHT22;27925;41.874;12.526;2022-07-26T11:31:38;34.70;49.60
40538;DHT22;27925;41.874;12.526;2022-07-26T11:34:04;34.80;49.30
40538;DHT22;27925;41.874;12.526;2022-07-26T11:36:35;34.90;49.50
40538;DHT22;27925;41.874;12.526;2022-07-26T11:39:02;34.90;49.30
40538;DHT22;27925;41.874;12.526;2022-07-26T11:41:30;35.00;49.40
40538;DHT22;27925;41.874;12.526;2022-07-26T11:43:58;35.10;49.30
40538;DHT22;27925;41.874;12.526;2022-07-26T11:46:35;35.10;49.20
40538;DHT22;27925;41.874;12.526;2022-07-26T11:49:03;35.10;49.50
40538;DHT22;27925;41.874;12.526;2022-07-26T11:51:30;35.20;49.40
40538;DHT22;27925;41.874;12.526;2022-07-26T11:53:56;35.20;49.10
40538;DHT22;27925;41.874;12.526;2022-07-26T11:56:28;35.20;48.90
40538;DHT22;27925;41.874;12.526;2022-07-26T11:58:56;35.20;48.90
40538;DHT22;27925;41.874;12.526;2022-07-26T12:01:23;35.20;48.90
40538;DHT22;27925;41.874;12.526;2022-07-26T12:03:52;35.30;49.00
40538;DHT22;27925;41.874;12.526;2022-07-26T12:06:23;35.40;49.50
40538;DHT22;27925;41.874;12.526;2022-07-26T12:08:55;35.40;48.80
40538;DHT22;27925;41.874;12.526;2022-07-26T12:11:23;35.40;48.40
40538;DHT22;27925;41.874;12.526;2022-07-26T12:13:55;35.40;48.80
40538;DHT22;27925;41.874;12.526;2022-07-26T12:19:27;35.50;49.60
40538;DHT22;27925;41.874;12.526;2022-07-26T12:22:05;35.50;50.00
40538;DHT22;27925;41.874;12.526;2022-07-26T12:24:36;35.40;49.80
40538;DHT22;27925;41.874;12.526;2022-07-26T12:29:30;35.50;50.20
40538;DHT22;27925;41.874;12.526;2022-07-26T12:32:16;35.60;50.20
40538;DHT22;27925;41.874;12.526;2022-07-26T12:35:13;35.60;50.20
40538;DHT22;27925;41.874;12.526;2022-07-26T12:40:18;35.70;51.00
40538;DHT22;27925;41.874;12.526;2022-07-26T12:42:59;35.70;50.60
40538;DHT22;27925;41.874;12.526;2022-07-26T12:45:45;35.70;50.30
40538;DHT22;27925;41.874;12.526;2022-07-26T12:48:11;35.70;50.40
40538;DHT22;27925;41.874;12.526;2022-07-26T12:50:37;35.70;50.30
40538;DHT22;27925;41.874;12.526;2022-07-26T12:53:07;35.70;50.50
40538;DHT22;27925;41.874;12.526;2022-07-26T12:55:33;35.70;50.60
40538;DHT22;27925;41.874;12.526;2022-07-26T12:57:59;35.70;51.00
40538;DHT22;27925;41.874;12.526;2022-07-26T13:00:27;35.70;51.20
40538;DHT22;27925;41.874;12.526;2022-07-26T13:02:53;35.70;51.30
40538;DHT22;27925;41.874;12.526;2022-07-26T13:05:20;35.70;51.90
40538;DHT22;27925;41.874;12.526;2022-07-26T13:07:46;35.70;52.50
40538;DHT22;27925;41.874;12.526;2022-07-26T13:10:12;35.60;52.20
40538;DHT22;27925;41.874;12.526;2022-07-26T13:12:39;35.60;52.20
40538;DHT22;27925;41.874;12.526;2022-07-26T13:15:06;35.70;52.60
40538;DHT22;27925;41.874;12.526;2022-07-26T13:17:31;35.60;52.60
40538;DHT22;27925;41.874;12.526;2022-07-26T13:19:57;35.60;52.90
40538;DHT22;27925;41.874;12.526;2022-07-26T13:22:23;35.60;52.90
40538;DHT22;27925;41.874;12.526;2022-07-26T13:24:48;35.60;53.40
40538;DHT22;27925;41.874;12.526;2022-07-26T13:27:14;35.50;54.00
40538;DHT22;27925;41.874;12.526;2022-07-26T13:29:43;35.50;53.70
40538;DHT22;27925;41.874;12.526;2022-07-26T13:32:08;35.50;54.30
40538;DHT22;27925;41.874;12.526;2022-07-26T13:34:35;35.50;54.20
40538;DHT22;27925;41.874;12.526;2022-07-26T13:37:03;35.50;55.30
40538;DHT22;27925;41.874;12.526;2022-07-26T13:39:29;35.40;54.50
40538;DHT22;27925;41.874;12.526;2022-07-26T13:41:56;35.30;55.20
40538;DHT22;27925;41.874;12.526;2022-07-26T13:44:23;35.30;55.70
40538;DHT22;27925;41.874;12.526;2022-07-26T13:46:49;35.40;55.60
40538;DHT22;27925;41.874;12.526;2022-07-26T13:49:15;35.40;55.80
40538;DHT22;27925;41.874;12.526;2022-07-26T13:51:41;35.40;55.50
40538;DHT22;27925;41.874;12.526;2022-07-26T13:54:27;35.40;55.10
40538;DHT22;27925;41.874;12.526;2022-07-26T13:56:53;35.40;55.30
40538;DHT22;27925;41.874;12.526;2022-07-26T13:59:19;35.40;56.20
40538;DHT22;27925;41.874;12.526;2022-07-26T14:01:45;35.30;55.30
40538;DHT22;27925;41.874;12.526;2022-07-26T14:04:12;35.30;55.60
40538;DHT22;27925;41.874;12.526;2022-07-26T14:06:38;35.30;55.70
40538;DHT22;27925;41.874;12.526;2022-07-26T14:09:05;35.20;55.50
40538;DHT22;27925;41.874;12.526;2022-07-26T14:11:31;35.20;56.20
40538;DHT22;27925;41.874;12.526;2022-07-26T14:13:57;35.20;55.30
40538;DHT22;27925;41.874;12.526;2022-07-26T14:16:23;35.30;55.60
40538;DHT22;27925;41.874;12.526;2022-07-26T14:18:55;35.30;55.80
40538;DHT22;27925;41.874;12.526;2022-07-26T14:21:23;35.40;55.50
40538;DHT22;27925;41.874;12.526;2022-07-26T14:23:50;35.30;55.50
40538;DHT22;27925;41.874;12.526;2022-07-26T14:26:35;35.30;55.30
40538;DHT22;27925;41.874;12.526;2022-07-26T14:29:01;35.30;55.30
40538;DHT22;27925;41.874;12.526;2022-07-26T14:31:27;35.30;55.20
40538;DHT22;27925;41.874;12.526;2022-07-26T14:33:53;35.30;55.10
40538;DHT22;27925;41.874;12.526;2022-07-26T14:36:18;35.30;55.30
40538;DHT22;27925;41.874;12.526;2022-07-26T14:38:44;35.40;55.10
40538;DHT22;27925;41.874;12.526;2022-07-26T14:41:12;35.40;55.10
40538;DHT22;27925;41.874;12.526;2022-07-26T14:43:37;35.40;54.80
40538;DHT22;27925;41.874;12.526;2022-07-26T14:46:03;35.40;54.80
40538;DHT22;27925;41.874;12.526;2022-07-26T14:48:29;35.30;54.40
40538;DHT22;27925;41.874;12.526;2022-07-26T14:50:55;35.30;54.70
40538;DHT22;27925;41.874;12.526;2022-07-26T14:53:21;35.30;54.80
40538;DHT22;27925;41.874;12.526;2022-07-26T14:55:47;35.30;55.00
40538;DHT22;27925;41.874;12.526;2022-07-26T14:58:12;35.20;55.90
40538;DHT22;27925;41.874;12.526;2022-07-26T15:00:38;35.20;55.70
40538;DHT22;27925;41.874;12.526;2022-07-26T15:03:04;35.10;55.10
40538;DHT22;27925;41.874;12.526;2022-07-26T15:05:30;35.20;55.00
40538;DHT22;27925;41.874;12.526;2022-07-26T15:07:55;35.20;55.10
40538;DHT22;27925;41.874;12.526;2022-07-26T15:10:21;35.20;55.20
40538;DHT22;27925;41.874;12.526;2022-07-26T15:12:56;35.10;55.40
40538;DHT22;27925;41.874;12.526;2022-07-26T15:15:22;35.10;55.30
40538;DHT22;27925;41.874;12.526;2022-07-26T15:17:48;35.10;55.50
40538;DHT22;27925;41.874;12.526;2022-07-26T15:20:14;35.00;55.50
40538;DHT22;27925;41.874;12.526;2022-07-26T15:22:40;35.00;55.30
40538;DHT22;27925;41.874;12.526;2022-07-26T15:25:06;35.00;55.10
40538;DHT22;27925;41.874;12.526;2022-07-26T15:27:31;34.90;54.90
40538;DHT22;27925;41.874;12.526;2022-07-26T15:29:57;34.90;54.90
40538;DHT22;27925;41.874;12.526;2022-07-26T15:32:23;34.90;54.80
40538;DHT22;27925;41.874;12.526;2022-07-26T15:34:49;35.00;54.70
40538;DHT22;27925;41.874;12.526;2022-07-26T15:37:14;35.00;54.30
40538;DHT22;27925;41.874;12.526;2022-07-26T15:39:40;35.00;53.90
40538;DHT22;27925;41.874;12.526;2022-07-26T15:42:07;35.00;53.80
40538;DHT22;27925;41.874;12.526;2022-07-26T15:44:33;35.00;53.20
40538;DHT22;27925;41.874;12.526;2022-07-26T15:47:01;35.00;53.70